Time,TemperatureF,DewpointF,PressureIn,WindDirection,WindDirectionDegrees,WindSpeedMPH,WindSpeedGustMPH,Humidity,HourlyPrecipIn,Conditions,Clouds,dailyrainin,SolarRadiationWatts/m^2,SoftwareType,DateUTC
2013-02-02 00:03:00,11.0,6.0,-100.00,SE,127,0.0,2.0,81,0.00,,,0.01,0.000000,,2013-02-02 05:03:00,
2013-02-02 00:12:00,11.0,6.0,-100.00,SE,127,0.0,2.0,81,0.00,,,0.01,0.000000,,2013-02-02 05:12:00,
2013-02-02 00:33:00,11.0,7.0,-100.00,ESE,108,1.0,2.0,83,0.00,,,0.01,0.000000,,2013-02-02 05:33:00,
2013-02-02 00:42:00,11.0,7.0,-100.00,ESE,108,1.0,2.0,83,0.00,,,0.01,0.000000,,2013-02-02 05:42:00,
2013-02-02 00:52:00,11.0,7.0,-100.00,ESE,108,1.0,2.0,83,0.00,,,0.01,0.000000,,2013-02-02 05:52:00,
2013-02-02 01:02:00,11.0,7.0,-100.00,ESE,108,1.0,2.0,83,0.00,,,0.01,0.000000,,2013-02-02 06:02:00,
2013-02-02 01:12:00,11.0,7.0,-100.00,ESE,108,1.0,2.0,83,0.00,,,0.01,0.000000,,2013-02-02 06:12:00,
2013-02-02 01:32:00,11.0,7.0,-100.00,ESE,121,2.0,2.0,84,0.00,,,0.01,0.000000,,2013-02-02 06:32:00,
2013-02-02 01:42:00,11.0,7.0,-100.00,ESE,121,2.0,2.0,84,0.00,,,0.01,0.000000,,2013-02-02 06:42:00,
2013-02-02 01:52:00,11.0,7.0,-100.00,ESE,121,2.0,2.0,84,0.00,,,0.01,0.000000,,2013-02-02 06:52:00,
2013-02-02 02:02:00,11.0,7.0,-100.00,ESE,121,2.0,2.0,84,0.00,,,0.01,0.000000,,2013-02-02 07:02:00,
2013-02-02 02:12:00,11.0,7.0,-100.00,ESE,121,2.0,2.0,84,0.00,,,0.01,0.000000,,2013-02-02 07:12:00,
2013-02-02 02:32:00,10.0,6.0,-100.00,ESE,123,0.0,2.0,85,0.00,,,0.01,0.000000,,2013-02-02 07:32:00,
2013-02-02 02:42:00,10.0,6.0,-100.00,ESE,123,0.0,2.0,85,0.00,,,0.01,0.000000,,2013-02-02 07:42:00,
2013-02-02 02:52:00,10.0,6.0,-100.00,ESE,123,0.0,2.0,85,0.00,,,0.01,0.000000,,2013-02-02 07:52:00,
2013-02-02 03:01:00,10.0,6.0,-100.00,ESE,123,0.0,2.0,85,0.00,,,0.01,0.000000,,2013-02-02 08:01:00,
2013-02-02 03:11:00,10.0,6.0,-100.00,ESE,123,0.0,2.0,85,0.00,,,0.01,0.000000,,2013-02-02 08:11:00,
2013-02-02 03:42:00,10.0,7.0,-100.00,SE,135,1.0,2.0,86,0.00,,,0.01,0.000000,,2013-02-02 08:42:00,
2013-02-02 03:53:00,10.0,7.0,-100.00,SE,135,1.0,2.0,86,0.00,,,0.01,0.000000,,2013-02-02 08:53:00,
2013-02-02 04:02:00,10.0,7.0,-100.00,SE,135,1.0,2.0,86,0.00,,,0.01,0.000000,,2013-02-02 09:02:00,
2013-02-02 04:11:00,10.0,7.0,-100.00,SE,135,1.0,2.0,86,0.00,,,0.01,0.000000,,2013-02-02 09:11:00,
2013-02-02 04:32:00,10.0,7.0,-100.00,ESE,121,1.0,3.0,86,0.00,,,0.01,0.000000,,2013-02-02 09:32:00,
2013-02-02 04:42:00,10.0,7.0,-100.00,ESE,121,1.0,3.0,86,0.00,,,0.01,0.000000,,2013-02-02 09:42:00,
2013-02-02 04:52:00,10.0,7.0,-100.00,ESE,121,1.0,3.0,86,0.00,,,0.01,0.000000,,2013-02-02 09:52:00,
2013-02-02 05:02:00,10.0,7.0,-100.00,ESE,121,1.0,3.0,86,0.00,,,0.01,0.000000,,2013-02-02 10:02:00,
2013-02-02 05:11:00,10.0,7.0,-100.00,ESE,121,1.0,3.0,86,0.00,,,0.01,0.000000,,2013-02-02 10:11:00,
2013-02-02 05:32:00,10.0,6.0,-100.00,ENE,78,1.0,2.0,85,0.00,,,0.01,0.000000,,2013-02-02 10:32:00,
2013-02-02 05:42:00,10.0,6.0,-100.00,ENE,78,1.0,2.0,85,0.00,,,0.01,0.000000,,2013-02-02 10:42:00,
2013-02-02 05:52:00,10.0,6.0,-100.00,ENE,78,1.0,2.0,85,0.00,,,0.01,0.000000,,2013-02-02 10:52:00,
2013-02-02 06:02:00,10.0,6.0,-100.00,ENE,78,1.0,2.0,85,0.00,,,0.01,0.000000,,2013-02-02 11:02:00,
2013-02-02 06:11:00,10.0,6.0,-100.00,ENE,78,1.0,2.0,85,0.00,,,0.01,0.000000,,2013-02-02 11:11:00,
2013-02-02 06:32:00,10.0,6.0,-100.00,East,92,1.0,3.0,85,0.00,,,0.01,0.000000,,2013-02-02 11:32:00,
2013-02-02 06:42:00,10.0,6.0,-100.00,East,92,1.0,3.0,85,0.00,,,0.01,0.000000,,2013-02-02 11:42:00,
2013-02-02 06:52:00,10.0,6.0,-100.00,East,92,1.0,3.0,85,0.00,,,0.01,0.000000,,2013-02-02 11:52:00,
2013-02-02 07:02:00,10.0,6.0,-100.00,East,92,1.0,3.0,85,0.00,,,0.01,0.000000,,2013-02-02 12:02:00,
2013-02-02 07:11:00,10.0,6.0,-100.00,East,92,1.0,3.0,85,0.00,,,0.01,0.000000,,2013-02-02 12:11:00,
2013-02-02 07:32:00,11.0,7.0,-100.00,ESE,113,1.0,3.0,85,0.00,,,0.01,0.000000,,2013-02-02 12:32:00,
2013-02-02 07:42:00,11.0,7.0,-100.00,ESE,113,1.0,3.0,85,0.00,,,0.01,0.000000,,2013-02-02 12:42:00,
2013-02-02 07:53:00,11.0,7.0,-100.00,ESE,113,1.0,3.0,85,0.00,,,0.01,0.000000,,2013-02-02 12:53:00,
2013-02-02 08:03:00,11.0,7.0,-100.00,ESE,113,1.0,3.0,85,0.00,,,0.01,0.000000,,2013-02-02 13:03:00,
2013-02-02 08:11:00,11.0,7.0,-100.00,ESE,113,1.0,3.0,85,0.00,,,0.01,0.000000,,2013-02-02 13:11:00,
2013-02-02 08:42:00,13.0,9.0,-100.00,NE,49,1.0,3.0,84,0.00,,,0.01,16.000000,,2013-02-02 13:42:00,
2013-02-02 08:52:00,13.0,9.0,-100.00,NE,49,1.0,3.0,84,0.00,,,0.01,16.000000,,2013-02-02 13:52:00,
2013-02-02 09:03:00,13.0,9.0,-100.00,NE,49,1.0,3.0,84,0.00,,,0.01,16.000000,,2013-02-02 14:03:00,
2013-02-02 09:11:00,13.0,9.0,-100.00,NE,49,1.0,3.0,84,0.00,,,0.01,16.000000,,2013-02-02 14:11:00,
2013-02-02 09:33:00,18.0,11.0,-100.00,NE,39,1.0,2.0,75,0.00,,,0.01,75.000000,,2013-02-02 14:33:00,
2013-02-02 09:42:00,18.0,11.0,-100.00,NE,39,1.0,2.0,75,0.00,,,0.01,75.000000,,2013-02-02 14:42:00,
2013-02-02 09:52:00,18.0,11.0,-100.00,NE,39,1.0,2.0,75,0.00,,,0.01,75.000000,,2013-02-02 14:52:00,
2013-02-02 10:03:00,18.0,11.0,-100.00,NE,39,1.0,2.0,75,0.00,,,0.01,75.000000,,2013-02-02 15:03:00,
2013-02-02 10:12:00,18.0,11.0,-100.00,NE,39,1.0,2.0,75,0.00,,,0.01,75.000000,,2013-02-02 15:12:00,
2013-02-02 10:33:00,22.0,14.0,-100.00,SE,124,2.0,4.0,71,0.00,,,0.01,101.000000,,2013-02-02 15:33:00,
2013-02-02 10:42:00,22.0,14.0,-100.00,SE,124,2.0,4.0,71,0.00,,,0.01,101.000000,,2013-02-02 15:42:00,
2013-02-02 10:52:00,22.0,14.0,-100.00,SE,124,2.0,4.0,71,0.00,,,0.01,101.000000,,2013-02-02 15:52:00,
2013-02-02 11:03:00,22.0,14.0,-100.00,SE,124,2.0,4.0,71,0.00,,,0.01,101.000000,,2013-02-02 16:03:00,
2013-02-02 11:12:00,22.0,14.0,-100.00,SE,124,2.0,4.0,71,0.00,,,0.01,101.000000,,2013-02-02 16:12:00,
2013-02-02 11:42:00,25.0,16.0,-100.00,NE,37,2.0,4.0,69,0.00,,,0.01,102.000000,,2013-02-02 16:42:00,
2013-02-02 11:52:00,25.0,16.0,-100.00,NE,37,2.0,4.0,69,0.00,,,0.01,102.000000,,2013-02-02 16:52:00,
2013-02-02 12:03:00,25.0,16.0,-100.00,NE,37,2.0,4.0,69,0.00,,,0.01,102.000000,,2013-02-02 17:03:00,
2013-02-02 12:11:00,25.0,16.0,-100.00,NE,37,2.0,4.0,69,0.00,,,0.01,102.000000,,2013-02-02 17:11:00,
2013-02-02 12:33:00,26.0,18.0,-100.00,WSW,246,2.0,9.0,70,0.00,,,0.01,102.000000,,2013-02-02 17:33:00,
2013-02-02 12:42:00,26.0,18.0,-100.00,WSW,246,2.0,9.0,70,0.00,,,0.01,102.000000,,2013-02-02 17:42:00,
2013-02-02 12:53:00,26.0,18.0,-100.00,WSW,246,2.0,9.0,70,0.00,,,0.01,102.000000,,2013-02-02 17:53:00,
2013-02-02 13:03:00,26.0,18.0,-100.00,WSW,246,2.0,9.0,70,0.00,,,0.01,102.000000,,2013-02-02 18:03:00,
2013-02-02 13:12:00,26.0,18.0,-100.00,WSW,246,2.0,9.0,70,0.00,,,0.01,102.000000,,2013-02-02 18:12:00,
2013-02-02 13:32:00,28.0,23.0,-100.00,NNE,22,4.0,8.0,80,0.00,,,0.01,64.000000,,2013-02-02 18:32:00,
2013-02-02 13:42:00,28.0,23.0,-100.00,NNE,22,4.0,8.0,80,0.00,,,0.01,64.000000,,2013-02-02 18:42:00,
2013-02-02 13:52:00,28.0,23.0,-100.00,NNE,22,4.0,8.0,80,0.00,,,0.01,64.000000,,2013-02-02 18:52:00,
2013-02-02 14:02:00,28.0,23.0,-100.00,NNE,22,4.0,8.0,80,0.00,,,0.01,64.000000,,2013-02-02 19:02:00,
2013-02-02 14:12:00,28.0,23.0,-100.00,NNE,22,4.0,8.0,80,0.00,,,0.01,64.000000,,2013-02-02 19:12:00,
2013-02-02 14:32:00,31.0,26.0,-100.00,NNE,17,3.0,10.0,81,0.00,,,0.00,60.000000,,2013-02-02 19:32:00,
2013-02-02 14:42:00,31.0,26.0,-100.00,NNE,17,3.0,10.0,81,0.00,,,0.00,60.000000,,2013-02-02 19:42:00,
2013-02-02 14:52:00,31.0,26.0,-100.00,NNE,17,3.0,10.0,81,0.00,,,0.00,60.000000,,2013-02-02 19:52:00,
2013-02-02 15:02:00,31.0,26.0,-100.00,NNE,17,3.0,10.0,81,0.00,,,0.00,60.000000,,2013-02-02 20:02:00,
2013-02-02 15:12:00,31.0,26.0,-100.00,NNE,17,3.0,10.0,81,0.00,,,0.00,60.000000,,2013-02-02 20:12:00,
2013-02-02 15:32:00,33.0,23.0,-100.00,WNW,289,5.0,13.0,66,0.02,,,0.02,112.000000,,2013-02-02 20:32:00,
2013-02-02 15:42:00,33.0,23.0,-100.00,WNW,289,5.0,13.0,66,0.02,,,0.02,112.000000,,2013-02-02 20:42:00,
2013-02-02 15:52:00,33.0,23.0,-100.00,WNW,289,5.0,13.0,66,0.02,,,0.02,112.000000,,2013-02-02 20:52:00,
2013-02-02 16:02:00,33.0,23.0,-100.00,WNW,289,5.0,13.0,66,0.02,,,0.02,112.000000,,2013-02-02 21:02:00,
2013-02-02 16:11:00,33.0,23.0,-100.00,WNW,289,5.0,13.0,66,0.02,,,0.02,112.000000,,2013-02-02 21:11:00,
2013-02-02 16:43:00,31.0,24.0,-100.00,ENE,60,2.0,14.0,74,0.02,,,0.04,87.000000,,2013-02-02 21:43:00,
2013-02-02 16:52:00,31.0,24.0,-100.00,ENE,60,2.0,14.0,74,0.02,,,0.04,87.000000,,2013-02-02 21:52:00,
2013-02-02 17:03:00,31.0,24.0,-100.00,ENE,60,2.0,14.0,74,0.02,,,0.04,87.000000,,2013-02-02 22:03:00,
2013-02-02 17:12:00,31.0,24.0,-100.00,ENE,60,2.0,14.0,74,0.02,,,0.04,87.000000,,2013-02-02 22:12:00,
2013-02-02 17:32:00,31.0,24.0,-100.00,NNW,345,2.0,11.0,75,0.00,,,0.04,36.000000,,2013-02-02 22:32:00,
2013-02-02 17:42:00,31.0,24.0,-100.00,NNW,345,2.0,11.0,75,0.00,,,0.04,36.000000,,2013-02-02 22:42:00,
2013-02-02 17:52:00,31.0,24.0,-100.00,NNW,345,2.0,11.0,75,0.00,,,0.04,36.000000,,2013-02-02 22:52:00,
2013-02-02 18:02:00,31.0,24.0,-100.00,NNW,345,2.0,11.0,75,0.00,,,0.04,36.000000,,2013-02-02 23:02:00,
2013-02-02 18:11:00,31.0,24.0,-100.00,NNW,345,2.0,11.0,75,0.00,,,0.04,36.000000,,2013-02-02 23:11:00,
2013-02-02 18:42:00,29.0,25.0,-100.00,ESE,107,1.0,6.0,83,0.00,,,0.04,3.000000,,2013-02-02 23:42:00,
2013-02-02 18:52:00,29.0,25.0,-100.00,ESE,107,1.0,6.0,83,0.00,,,0.04,3.000000,,2013-02-02 23:52:00,
2013-02-02 19:02:00,29.0,25.0,-100.00,ESE,107,1.0,6.0,83,0.00,,,0.04,3.000000,,2013-02-03 00:02:00,
2013-02-02 19:11:00,29.0,25.0,-100.00,ESE,107,1.0,6.0,83,0.00,,,0.04,3.000000,,2013-02-03 00:11:00,
2013-02-02 19:32:00,29.0,26.0,-100.00,East,94,1.0,3.0,88,0.00,,,0.04,0.000000,,2013-02-03 00:32:00,
2013-02-02 19:42:00,29.0,26.0,-100.00,East,94,1.0,3.0,88,0.00,,,0.04,0.000000,,2013-02-03 00:42:00,
2013-02-02 19:52:00,29.0,26.0,-100.00,East,94,1.0,3.0,88,0.00,,,0.04,0.000000,,2013-02-03 00:52:00,
2013-02-02 20:02:00,29.0,26.0,-100.00,East,94,1.0,3.0,88,0.00,,,0.04,0.000000,,2013-02-03 01:02:00,
2013-02-02 20:11:00,29.0,26.0,-100.00,East,94,1.0,3.0,88,0.00,,,0.04,0.000000,,2013-02-03 01:11:00,
2013-02-02 20:42:00,29.0,26.0,-100.00,East,86,0.0,0.0,89,0.00,,,0.04,0.000000,,2013-02-03 01:42:00,
2013-02-02 20:52:00,29.0,26.0,-100.00,East,86,0.0,0.0,89,0.00,,,0.04,0.000000,,2013-02-03 01:52:00,
2013-02-02 21:01:00,29.0,26.0,-100.00,East,86,0.0,0.0,89,0.00,,,0.04,0.000000,,2013-02-03 02:01:00,
2013-02-02 21:11:00,29.0,26.0,-100.00,East,86,0.0,0.0,89,0.00,,,0.04,0.000000,,2013-02-03 02:11:00,
2013-02-02 21:42:00,29.0,27.0,-100.00,ENE,70,0.0,0.0,93,0.00,,,0.04,0.000000,,2013-02-03 02:42:00,
2013-02-02 21:52:00,29.0,27.0,-100.00,ENE,70,0.0,0.0,93,0.00,,,0.04,0.000000,,2013-02-03 02:52:00,
2013-02-02 22:02:00,29.0,27.0,-100.00,ENE,70,0.0,0.0,93,0.00,,,0.04,0.000000,,2013-02-03 03:02:00,
2013-02-02 22:11:00,29.0,27.0,-100.00,ENE,70,0.0,0.0,93,0.00,,,0.04,0.000000,,2013-02-03 03:11:00,
2013-02-02 22:42:00,29.0,28.0,-100.00,ENE,69,1.0,3.0,96,0.00,,,0.04,0.000000,,2013-02-03 03:42:00,
2013-02-02 22:52:00,29.0,28.0,-100.00,ENE,69,1.0,3.0,96,0.00,,,0.04,0.000000,,2013-02-03 03:52:00,
2013-02-02 23:01:00,29.0,28.0,-100.00,ENE,69,1.0,3.0,96,0.00,,,0.04,0.000000,,2013-02-03 04:01:00,
2013-02-02 23:11:00,29.0,28.0,-100.00,ENE,69,1.0,3.0,96,0.00,,,0.04,0.000000,,2013-02-03 04:11:00,
2013-02-02 23:32:00,29.0,28.0,-100.00,East,80,2.0,4.0,97,0.00,,,0.04,0.000000,,2013-02-03 04:32:00,
2013-02-02 23:42:00,29.0,28.0,-100.00,East,80,2.0,4.0,97,0.00,,,0.04,0.000000,,2013-02-03 04:42:00,
2013-02-02 23:52:00,29.0,28.0,-100.00,East,80,2.0,4.0,97,0.00,,,0.04,0.000000,,2013-02-03 04:52:00,